首页
METAR-TAF:

METAR-TAF

机场 :

塔那那利佛, 马达加斯加

塔那那利佛/伊瓦图国际机场

纬度: 18-48S, 经度: 047-29E, 海拔: 1279米

当前天气观测

该预报发布于28分钟前的14:00 UTC
风速3节,风向多变
温度 19°C
湿度 100%
气压 1015 hPa
能見度: 8000
少量云层高于700英尺
散云层高于1700英尺, 积雨云.
多云层高于2000英尺
雷暴, 小雨

METAR: FMMI 221400Z VRB03KT 8000 -TSRA FEW007 SCT017CB BKN020 19/19 Q1015 TEMPO 4000 TSRA

时间: 17:28 (14:28 UTC)

预报

该预报发布于3小时和28分钟前的11:00 UTC
预报有效从22日的 12点(UTC)到 23日的 18点(UTC)
风速7节,风向多变
能见度10公里或以上
少量云层高于1000英尺
多云层高于1500英尺, 积雨云.
多云层高于2000英尺
短暂存在
从 22日的 12点(UTC)到 22日的 21点(UTC)
能見度: 4000
雷暴, 雨
几率 30% :
短暂存在
从 22日的 21点(UTC)到 23日的 04点(UTC)
能見度: 4000
几率 30% :
短暂存在
从 23日的 13点(UTC)到 23日的 18点(UTC)
能見度: 4000
雷暴, 雨

TAF: FMMI 221100Z 2212/2318 VRB07KT 9999 FEW010 BKN015CB BKN020 TEMPO 2212/2221 4000 TSRA PROB30 TEMPO 2221/2304 4000 RA PROB30 TEMPO 2313/2318 4000 TSRA

超过4000个机场的气象观测和天气预报(METAR&TAF报告)。

可查询的气象台以黄色和红色小点在地图上表示。

将鼠标移到小点上方,可查看气象台名称。

然后点击查看天气观测和预报。

如需切换地图:点击带黑十字的绿色按钮放大地图;点击带横线的绿色按钮缩小地图;或者点击绿色箭头查看邻近地区的地图。


METAR-TAF: